Terminal Aerodrome Forecast
Issued by NWS

Home | Current Version | Previous Version | Text Only | Print | Product List | Glossary On
Versions: 1 2 3 4 5 6 7 8 9 10 11 12 13 14 15 16
000
FTUS42 KGSP 281700
TAFGMU
TAF
KGMU 281724Z 2818/2918 29014KT P6SM FEW050
     FM282200 31009KT P6SM FEW250
     FM290400 35006KT P6SM FEW250=

USA.gov is the U.S. government's official web portal to all federal, state and local government web resources and services.